KGGP

Logansport / Cass County Airport

Logansport, Indiana, USA
METAR KGGP 231355Z AUTO 00000KT 2SM BR SCT003 BKN015 OVC023 05/05 A3015 RMK AO2 P0004
Observed Flight Rules
Feb-23 @ 13:55 UTC (38 minutes ago) Instrument Flight Rules
Wind Visibility Clouds Conditions
Calm 2 miles
  • Scattered at 300' AGL
  • Broken at 1,500' AGL
  • Overcast at 2,300' AGL
  • Mist
Temperatures Readings Precipitation
Current 5°C / 41°F
Dewpoint 5°C / 41°F
Humidity 100%
Altimeter 30.15" Hg
Pressure 1021 hPa
Elevation 225
Current Rain 0.04
METAR KGGP 231355Z AUTO 00000KT 2SM BR SCT003 BKN015 OVC023 05/05 A3015 RMK AO2 P0004
Observed Flight Rules
Feb-23 @ 13:55 UTC
(38 minutes ago)
IFR
Wind Visibility
Calm 2 miles
Clouds
  • Scattered at 300' AGL
  • Broken at 1,500' AGL
  • Overcast at 2,300' AGL
Conditions
  • Mist
Temperature Dewpoint
5°C / 41°F 5°C / 41°F
Humidity Altimeter Pressure
100% 30.15" Hg 1021 hPa
Current Rain
0.04